Time,TemperatureF,DewpointF,PressureIn,WindDirection,WindDirectionDegrees,WindSpeedMPH,WindSpeedGustMPH,Humidity,HourlyPrecipIn,Conditions,Clouds,dailyrainin,SoftwareType,DateUTC
2013-05-22 00:03:00,69.0,68.0,29.99,SW,229,0.0,0.0,96,0.00,,,6.07,,2013-05-22 04:03:00,
2013-05-22 00:13:00,69.0,68.0,29.99,SW,229,0.0,0.0,96,0.00,,,6.07,,2013-05-22 04:13:00,
2013-05-22 00:23:00,69.0,68.0,29.99,SW,229,0.0,0.0,97,0.00,,,6.07,,2013-05-22 04:23:00,
2013-05-22 00:33:00,69.0,68.0,29.99,NW,324,1.0,2.0,97,0.00,,,6.07,,2013-05-22 04:33:00,
2013-05-22 00:43:00,68.0,67.0,29.98,NW,324,0.0,0.0,97,0.00,,,6.07,,2013-05-22 04:43:00,
2013-05-22 00:53:00,68.0,67.0,29.98,NW,324,0.0,0.0,97,0.00,,,6.07,,2013-05-22 04:53:00,
2013-05-22 01:02:00,68.0,67.0,29.98,NW,324,0.0,0.0,97,0.00,,,6.07,,2013-05-22 05:02:00,
2013-05-22 01:12:00,68.0,67.0,29.98,NW,324,0.0,0.0,97,0.00,,,6.07,,2013-05-22 05:12:00,
2013-05-22 01:22:00,68.0,67.0,29.99,NW,324,0.0,0.0,98,0.00,,,6.07,,2013-05-22 05:22:00,
2013-05-22 01:32:00,68.0,67.0,29.99,NW,324,0.0,0.0,98,0.00,,,6.07,,2013-05-22 05:32:00,
2013-05-22 01:42:00,68.0,67.0,29.99,NW,324,0.0,0.0,98,0.00,,,6.07,,2013-05-22 05:42:00,
2013-05-22 01:52:00,68.0,67.0,29.99,NW,324,0.0,1.0,98,0.00,,,6.07,,2013-05-22 05:52:00,
2013-05-22 02:01:00,68.0,67.0,29.99,NW,324,0.0,0.0,98,0.00,,,6.07,,2013-05-22 06:01:00,
2013-05-22 02:12:00,68.0,67.0,29.99,NW,324,0.0,0.0,98,0.00,,,6.07,,2013-05-22 06:12:00,
2013-05-22 02:21:00,67.0,66.0,29.99,NW,324,0.0,1.0,98,0.00,,,6.07,,2013-05-22 06:21:00,
2013-05-22 02:32:00,67.0,66.0,29.99,NW,324,0.0,0.0,98,0.00,,,6.07,,2013-05-22 06:32:00,
2013-05-22 02:42:00,67.0,66.0,29.98,NW,324,0.0,0.0,98,0.00,,,6.07,,2013-05-22 06:42:00,
2013-05-22 02:52:00,67.0,66.0,29.98,NW,324,0.0,0.0,98,0.00,,,6.07,,2013-05-22 06:52:00,
2013-05-22 03:01:00,67.0,66.0,29.98,NW,324,0.0,0.0,98,0.00,,,6.07,,2013-05-22 07:01:00,
2013-05-22 03:11:00,67.0,66.0,29.98,NW,324,0.0,0.0,98,0.00,,,6.07,,2013-05-22 07:11:00,
2013-05-22 03:21:00,66.0,65.0,29.98,NW,324,0.0,0.0,98,0.00,,,6.07,,2013-05-22 07:21:00,
2013-05-22 03:32:00,66.0,65.0,29.98,NW,324,0.0,0.0,98,0.00,,,6.07,,2013-05-22 07:32:00,
2013-05-22 03:42:00,66.0,65.0,29.98,NW,324,0.0,0.0,98,0.00,,,6.07,,2013-05-22 07:42:00,
2013-05-22 03:53:00,66.0,65.0,29.98,NW,324,0.0,0.0,98,0.00,,,6.07,,2013-05-22 07:53:00,
2013-05-22 04:02:00,66.0,65.0,29.97,NW,324,0.0,0.0,98,0.00,,,6.07,,2013-05-22 08:02:00,
2013-05-22 04:11:00,66.0,65.0,29.97,NW,324,0.0,0.0,98,0.00,,,6.07,,2013-05-22 08:11:00,
2013-05-22 04:22:00,66.0,65.0,29.97,NW,324,0.0,0.0,98,0.00,,,6.07,,2013-05-22 08:22:00,
2013-05-22 04:32:00,66.0,65.0,29.97,NW,324,0.0,0.0,98,0.00,,,6.07,,2013-05-22 08:32:00,
2013-05-22 04:42:00,66.0,65.0,29.97,NW,324,0.0,0.0,98,0.00,,,6.07,,2013-05-22 08:42:00,
2013-05-22 04:52:00,65.0,64.0,29.97,NW,324,0.0,0.0,98,0.00,,,6.07,,2013-05-22 08:52:00,
2013-05-22 05:01:00,65.0,64.0,29.97,NW,324,0.0,0.0,98,0.00,,,6.07,,2013-05-22 09:01:00,
2013-05-22 05:12:00,65.0,64.0,29.97,NW,324,0.0,0.0,98,0.00,,,6.07,,2013-05-22 09:12:00,
2013-05-22 05:22:00,66.0,66.0,29.96,NW,324,0.0,1.0,99,0.00,,,6.07,,2013-05-22 09:22:00,
2013-05-22 05:33:00,65.0,65.0,29.96,NW,324,0.0,0.0,99,0.00,,,6.07,,2013-05-22 09:33:00,
2013-05-22 05:42:00,65.0,65.0,29.96,NW,324,0.0,0.0,99,0.00,,,6.07,,2013-05-22 09:42:00,
2013-05-22 05:53:00,65.0,65.0,29.96,NW,324,0.0,1.0,99,0.00,,,6.07,,2013-05-22 09:53:00,
2013-05-22 06:03:00,65.0,65.0,29.96,NW,324,0.0,1.0,99,0.00,,,6.07,,2013-05-22 10:03:00,
2013-05-22 06:12:00,65.0,65.0,29.96,NW,324,0.0,1.0,99,0.00,,,6.07,,2013-05-22 10:12:00,
2013-05-22 06:23:00,65.0,65.0,29.97,NW,324,0.0,0.0,99,0.00,,,6.07,,2013-05-22 10:23:00,
2013-05-22 06:33:00,65.0,65.0,29.97,NW,324,0.0,0.0,99,0.00,,,6.07,,2013-05-22 10:33:00,
2013-05-22 06:42:00,65.0,65.0,29.97,NW,324,0.0,0.0,99,0.00,,,6.07,,2013-05-22 10:42:00,
2013-05-22 06:53:00,65.0,65.0,29.98,NW,324,0.0,0.0,99,0.00,,,6.07,,2013-05-22 10:53:00,
2013-05-22 07:02:00,65.0,65.0,29.98,NW,324,0.0,0.0,99,0.00,,,6.07,,2013-05-22 11:02:00,
2013-05-22 07:11:00,65.0,65.0,29.98,NW,324,0.0,0.0,99,0.00,,,6.07,,2013-05-22 11:11:00,
2013-05-22 07:22:00,66.0,66.0,29.98,NNW,328,0.0,1.0,99,0.00,,,6.07,,2013-05-22 11:22:00,
2013-05-22 07:32:00,66.0,66.0,29.98,NNW,327,0.0,1.0,99,0.00,,,6.07,,2013-05-22 11:32:00,
2013-05-22 07:42:00,66.0,66.0,29.98,NNW,327,0.0,1.0,99,0.00,,,6.07,,2013-05-22 11:42:00,
2013-05-22 07:53:00,68.0,68.0,29.99,NE,48,0.0,1.0,99,0.00,,,6.07,,2013-05-22 11:53:00,
2013-05-22 08:02:00,69.0,69.0,29.99,NE,48,0.0,2.0,99,0.00,,,6.07,,2013-05-22 12:02:00,
2013-05-22 08:12:00,69.0,69.0,29.99,NE,48,0.0,2.0,99,0.00,,,6.07,,2013-05-22 12:12:00,
2013-05-22 08:22:00,71.0,71.0,29.99,ESE,122,1.0,3.0,99,0.00,,,6.07,,2013-05-22 12:22:00,
2013-05-22 08:32:00,72.0,72.0,29.99,ESE,122,1.0,2.0,99,0.00,,,6.06,,2013-05-22 12:32:00,
2013-05-22 08:42:00,72.0,72.0,29.99,ESE,122,1.0,2.0,99,0.00,,,6.06,,2013-05-22 12:42:00,
2013-05-22 08:52:00,73.0,73.0,29.99,ESE,108,1.0,3.0,99,0.00,,,6.04,,2013-05-22 12:52:00,
2013-05-22 09:02:00,74.0,74.0,29.99,SE,133,0.0,3.0,99,0.00,,,6.03,,2013-05-22 13:02:00,
2013-05-22 09:12:00,74.0,74.0,29.99,SE,133,0.0,3.0,99,0.00,,,6.03,,2013-05-22 13:12:00,
2013-05-22 09:22:00,76.0,73.0,29.99,ESE,105,0.0,3.0,90,0.00,,,6.02,,2013-05-22 13:22:00,
2013-05-22 09:32:00,77.0,74.0,30.00,SE,125,1.0,3.0,90,0.00,,,6.02,,2013-05-22 13:32:00,
2013-05-22 09:42:00,77.0,74.0,30.00,SE,125,1.0,3.0,90,0.00,,,6.02,,2013-05-22 13:42:00,
2013-05-22 09:52:00,77.0,73.0,30.00,SE,125,0.0,2.0,87,0.00,,,6.02,,2013-05-22 13:52:00,
2013-05-22 10:02:00,77.0,72.0,30.00,SE,126,0.0,2.0,84,0.00,,,6.02,,2013-05-22 14:02:00,
2013-05-22 10:11:00,77.0,72.0,30.00,SE,126,0.0,2.0,84,0.00,,,6.02,,2013-05-22 14:11:00,
2013-05-22 10:22:00,78.0,72.0,30.00,ESE,102,0.0,3.0,83,0.00,,,6.02,,2013-05-22 14:22:00,
2013-05-22 10:32:00,78.0,73.0,30.00,East,87,0.0,3.0,85,0.00,,,6.02,,2013-05-22 14:32:00,
2013-05-22 10:42:00,78.0,73.0,30.00,East,87,0.0,3.0,85,0.00,,,6.02,,2013-05-22 14:42:00,
2013-05-22 10:53:00,77.0,72.0,30.00,East,86,0.0,1.0,86,0.00,,,6.01,,2013-05-22 14:53:00,
2013-05-22 11:01:00,76.0,72.0,30.00,East,87,0.0,1.0,88,0.00,,,6.01,,2013-05-22 15:01:00,
2013-05-22 11:11:00,76.0,72.0,30.00,East,87,0.0,1.0,88,0.00,,,6.01,,2013-05-22 15:11:00,
2013-05-22 11:22:00,76.0,73.0,30.01,East,86,0.0,1.0,90,0.00,,,6.01,,2013-05-22 15:22:00,
2013-05-22 11:32:00,76.0,71.0,30.00,NE,48,1.0,3.0,84,0.00,,,6.01,,2013-05-22 15:32:00,
2013-05-22 11:42:00,76.0,71.0,30.00,NE,48,1.0,3.0,84,0.00,,,6.01,,2013-05-22 15:42:00,
2013-05-22 11:53:00,77.0,72.0,30.00,SE,145,0.0,6.0,84,0.00,,,6.00,,2013-05-22 15:53:00,
2013-05-22 12:03:00,78.0,74.0,30.00,South,188,1.0,6.0,87,0.00,,,5.50,,2013-05-22 16:03:00,
2013-05-22 12:12:00,78.0,74.0,30.00,South,188,1.0,6.0,87,0.00,,,5.50,,2013-05-22 16:12:00,
2013-05-22 12:23:00,81.0,72.0,30.00,SE,144,3.0,10.0,75,0.00,,,3.21,,2013-05-22 16:23:00,
2013-05-22 12:33:00,82.0,74.0,30.00,ESE,106,2.0,5.0,76,0.00,,,2.39,,2013-05-22 16:33:00,
2013-05-22 12:42:00,82.0,74.0,30.00,ESE,106,2.0,5.0,76,0.00,,,2.39,,2013-05-22 16:42:00,
2013-05-22 12:52:00,83.0,72.0,30.00,South,171,3.0,7.0,69,0.00,,,0.91,,2013-05-22 16:52:00,
2013-05-22 13:02:00,83.0,73.0,29.99,South,190,3.0,9.0,71,0.00,,,0.57,,2013-05-22 17:02:00,
2013-05-22 13:12:00,83.0,73.0,29.99,South,190,3.0,9.0,71,0.00,,,0.57,,2013-05-22 17:12:00,
2013-05-22 13:23:00,83.0,72.0,29.99,South,183,3.0,9.0,70,0.00,,,0.38,,2013-05-22 17:23:00,
2013-05-22 13:33:00,83.0,73.0,29.99,South,181,2.0,7.0,73,0.00,,,0.31,,2013-05-22 17:33:00,
2013-05-22 13:42:00,83.0,73.0,29.99,South,181,2.0,7.0,73,0.00,,,0.31,,2013-05-22 17:42:00,
2013-05-22 13:54:00,83.0,73.0,29.99,SSW,209,2.0,9.0,72,0.00,,,0.26,,2013-05-22 17:54:00,
2013-05-22 14:02:00,83.0,70.0,29.98,SSE,167,3.0,15.0,66,0.00,,,0.23,,2013-05-22 18:02:00,
2013-05-22 14:14:00,83.0,70.0,29.98,SSE,167,3.0,15.0,66,0.00,,,0.23,,2013-05-22 18:14:00,
2013-05-22 14:22:00,84.0,74.0,29.98,South,185,1.0,12.0,72,0.00,,,0.16,,2013-05-22 18:22:00,
2013-05-22 14:33:00,84.0,72.0,29.97,South,179,4.0,10.0,68,0.00,,,0.08,,2013-05-22 18:33:00,
2013-05-22 14:42:00,84.0,72.0,29.97,South,179,4.0,10.0,68,0.00,,,0.08,,2013-05-22 18:42:00,
2013-05-22 14:52:00,84.0,72.0,29.97,SE,126,5.0,12.0,68,0.00,,,0.05,,2013-05-22 18:52:00,
2013-05-22 15:02:00,84.0,71.0,29.97,SSE,157,5.0,8.0,65,0.00,,,0.03,,2013-05-22 19:02:00,
2013-05-22 15:11:00,84.0,71.0,29.97,SSE,157,5.0,8.0,65,0.00,,,0.03,,2013-05-22 19:11:00,
2013-05-22 15:22:00,84.0,71.0,29.96,South,169,5.0,12.0,65,0.00,,,0.00,,2013-05-22 19:22:00,
2013-05-22 15:32:00,84.0,72.0,29.96,WSW,257,5.0,12.0,67,0.00,,,0.00,,2013-05-22 19:32:00,
2013-05-22 15:42:00,84.0,72.0,29.96,WSW,257,5.0,12.0,67,0.00,,,0.00,,2013-05-22 19:42:00,
2013-05-22 15:52:00,84.0,71.0,29.95,South,170,3.0,10.0,66,0.00,,,0.00,,2013-05-22 19:52:00,
2013-05-22 16:02:00,83.0,70.0,29.95,South,177,4.0,10.0,66,0.00,,,0.00,,2013-05-22 20:02:00,
2013-05-22 16:11:00,83.0,70.0,29.95,South,177,4.0,10.0,66,0.00,,,0.00,,2013-05-22 20:11:00,
2013-05-22 16:22:00,83.0,71.0,29.95,SSE,165,2.0,7.0,67,0.00,,,0.00,,2013-05-22 20:22:00,
2013-05-22 16:32:00,84.0,70.0,29.95,South,182,3.0,12.0,62,0.00,,,0.00,,2013-05-22 20:32:00,
2013-05-22 16:42:00,84.0,70.0,29.95,South,182,3.0,12.0,62,0.00,,,0.00,,2013-05-22 20:42:00,
2013-05-22 16:52:00,81.0,69.0,29.94,SSE,162,7.0,12.0,68,0.00,,,0.00,,2013-05-22 20:52:00,
2013-05-22 17:01:00,80.0,70.0,29.93,ESE,112,3.0,14.0,71,0.00,,,0.00,,2013-05-22 21:01:00,
2013-05-22 17:11:00,80.0,70.0,29.93,ESE,112,3.0,14.0,71,0.00,,,0.00,,2013-05-22 21:11:00,
2013-05-22 17:21:00,80.0,70.0,29.93,SSE,155,3.0,10.0,72,0.00,,,0.00,,2013-05-22 21:21:00,
2013-05-22 17:32:00,80.0,70.0,29.93,South,174,5.0,15.0,71,0.00,,,0.00,,2013-05-22 21:32:00,
2013-05-22 17:42:00,80.0,70.0,29.93,South,174,5.0,15.0,71,0.00,,,0.00,,2013-05-22 21:42:00,
2013-05-22 17:53:00,79.0,70.0,29.93,SE,124,3.0,12.0,74,0.00,,,0.00,,2013-05-22 21:53:00,
2013-05-22 18:03:00,78.0,69.0,29.93,SSE,166,6.0,10.0,74,0.00,,,0.00,,2013-05-22 22:03:00,
2013-05-22 18:13:00,78.0,69.0,29.93,SSE,166,6.0,10.0,74,0.00,,,0.00,,2013-05-22 22:13:00,
2013-05-22 18:22:00,78.0,70.0,29.93,SE,142,3.0,12.0,76,0.00,,,0.00,,2013-05-22 22:22:00,
2013-05-22 18:33:00,79.0,71.0,29.92,South,174,1.0,9.0,77,0.00,,,0.00,,2013-05-22 22:33:00,
2013-05-22 18:42:00,79.0,71.0,29.92,South,174,1.0,9.0,77,0.00,,,0.00,,2013-05-22 22:42:00,
2013-05-22 18:52:00,78.0,71.0,29.92,South,172,6.0,14.0,80,0.00,,,0.00,,2013-05-22 22:52:00,
2013-05-22 19:02:00,78.0,72.0,29.92,South,174,4.0,12.0,81,0.00,,,0.00,,2013-05-22 23:02:00,
2013-05-22 19:12:00,78.0,72.0,29.92,South,174,4.0,12.0,81,0.00,,,0.00,,2013-05-22 23:12:00,
2013-05-22 19:22:00,77.0,71.0,29.91,SSE,163,2.0,9.0,83,0.00,,,0.00,,2013-05-22 23:22:00,
2013-05-22 19:32:00,77.0,71.0,29.91,SE,140,2.0,9.0,83,0.00,,,0.00,,2013-05-22 23:32:00,
2013-05-22 19:42:00,77.0,71.0,29.91,SE,140,2.0,9.0,83,0.00,,,0.00,,2013-05-22 23:42:00,
2013-05-22 19:53:00,76.0,70.0,29.91,SSE,166,3.0,6.0,82,0.00,,,0.00,,2013-05-22 23:53:00,
2013-05-22 20:01:00,76.0,71.0,29.91,South,176,2.0,9.0,84,0.00,,,0.00,,2013-05-23 00:01:00,
2013-05-22 20:11:00,76.0,71.0,29.91,South,176,2.0,9.0,84,0.00,,,0.00,,2013-05-23 00:11:00,
2013-05-22 20:22:00,75.0,71.0,29.92,SSW,195,3.0,7.0,86,0.00,,,0.00,,2013-05-23 00:22:00,
2013-05-22 20:32:00,75.0,71.0,29.92,South,171,2.0,6.0,87,0.00,,,0.00,,2013-05-23 00:32:00,
2013-05-22 20:42:00,75.0,71.0,29.92,South,171,2.0,6.0,87,0.00,,,0.00,,2013-05-23 00:42:00,
2013-05-22 20:52:00,74.0,71.0,29.93,South,169,2.0,6.0,90,0.00,,,0.00,,2013-05-23 00:52:00,
2013-05-22 21:01:00,74.0,71.0,29.93,South,173,1.0,3.0,90,0.00,,,0.00,,2013-05-23 01:01:00,
2013-05-22 21:11:00,74.0,71.0,29.93,South,173,1.0,3.0,90,0.00,,,0.00,,2013-05-23 01:11:00,
2013-05-22 21:22:00,74.0,71.0,29.93,South,177,0.0,3.0,91,0.00,,,0.00,,2013-05-23 01:22:00,
2013-05-22 21:32:00,73.0,71.0,29.93,SSE,147,1.0,2.0,92,0.00,,,0.00,,2013-05-23 01:32:00,
2013-05-22 21:42:00,73.0,71.0,29.93,South,174,1.0,3.0,93,0.00,,,0.00,,2013-05-23 01:42:00,
2013-05-22 21:52:00,73.0,71.0,29.93,South,174,1.0,3.0,93,0.00,,,0.00,,2013-05-23 01:52:00,
2013-05-22 22:02:00,73.0,71.0,29.93,South,172,0.0,3.0,93,0.00,,,0.00,,2013-05-23 02:02:00,
2013-05-22 22:11:00,73.0,71.0,29.93,South,172,0.0,3.0,93,0.00,,,0.00,,2013-05-23 02:11:00,
2013-05-22 22:21:00,73.0,71.0,29.94,South,174,0.0,2.0,93,0.00,,,0.00,,2013-05-23 02:21:00,
2013-05-22 22:32:00,72.0,70.0,29.95,South,174,0.0,0.0,93,0.00,,,0.00,,2013-05-23 02:32:00,
2013-05-22 22:42:00,72.0,70.0,29.95,South,174,0.0,0.0,93,0.00,,,0.00,,2013-05-23 02:42:00,
2013-05-22 22:52:00,72.0,70.0,29.95,South,174,0.0,0.0,93,0.00,,,0.00,,2013-05-23 02:52:00,
2013-05-22 23:02:00,72.0,70.0,29.95,South,173,1.0,3.0,95,0.00,,,0.00,,2013-05-23 03:02:00,
2013-05-22 23:11:00,72.0,70.0,29.95,South,173,1.0,3.0,95,0.00,,,0.00,,2013-05-23 03:11:00,
2013-05-22 23:22:00,71.0,69.0,29.95,South,173,0.0,0.0,95,0.00,,,0.00,,2013-05-23 03:22:00,
2013-05-22 23:33:00,71.0,69.0,29.95,South,173,0.0,1.0,95,0.00,,,0.00,,2013-05-23 03:33:00,
2013-05-22 23:43:00,71.0,69.0,29.95,South,173,0.0,1.0,95,0.00,,,0.00,,2013-05-23 03:43:00,
2013-05-22 23:53:00,71.0,69.0,29.95,South,173,0.0,0.0,95,0.00,,,0.00,,2013-05-23 03:53:00,